Time;durP1;ratioP1;P1;durP2;ratioP2;P2;SDS_P1;SDS_P2;PMS_P1;PMS_P2;Temp;Humidity;BMP_temperature;BMP_pressure;BME280_temperature;BME280_humidity;BME280_pressure;Samples;Min_cycle;Max_cycle;Signal;HPM_P1;HPM_P2
2021/03/13 00:01:34;;;;;;;6.07;1.35;;;;;;;-143.98;100.00;68091.63;5073912;28;20118;-82
2021/03/13 00:04:05;;;;;;;12.20;1.58;;;;;;;-143.98;100.00;68091.63;5041156;28;20143;-82
2021/03/13 00:06:31;;;;;;;4.78;1.50;;;;;;;-143.98;100.00;68091.63;5061679;28;20048;-81
2021/03/13 00:08:57;;;;;;;8.25;1.55;;;;;;;-143.98;100.00;68091.63;5050267;28;20052;-82
2021/03/13 00:11:26;;;;;;;6.75;1.77;;;;;;;-143.98;100.00;68091.63;5085887;28;20452;-83
2021/03/13 00:13:53;;;;;;;8.02;2.00;;;;;;;-143.98;100.00;68091.63;5056126;28;20519;-83
2021/03/13 00:16:22;;;;;;;6.30;1.42;;;;;;;-143.98;100.00;68091.63;5068606;28;20064;-84
2021/03/13 00:18:50;;;;;;;8.48;1.73;;;;;;;-143.98;100.00;68091.63;5045202;28;20052;-83
2021/03/13 00:21:19;;;;;;;6.45;1.52;;;;;;;-143.98;100.00;68091.63;5061208;28;20108;-83
2021/03/13 00:23:46;;;;;;;5.32;1.83;;;;;;;-143.98;100.00;68091.63;5076253;28;20174;-83
2021/03/13 00:26:14;;;;;;;9.75;2.00;;;;;;;-143.98;100.00;68091.63;5043131;28;20403;-84
2021/03/13 00:28:41;;;;;;;6.00;1.80;;;;;;;-143.98;100.00;68091.63;5059055;28;20052;-84
2021/03/13 00:31:07;;;;;;;6.05;1.58;;;;;;;-143.98;100.00;68091.63;5060208;28;20057;-85
2021/03/13 00:33:36;;;;;;;7.75;1.60;;;;;;;-143.98;100.00;68091.63;5043708;28;20143;-85
2021/03/13 00:36:04;;;;;;;8.88;2.10;;;;;;;-143.98;100.00;68091.63;5042844;28;20301;-85
2021/03/13 00:38:30;;;;;;;13.23;2.30;;;;;;;-143.98;100.00;68091.63;5059662;28;20055;-84
2021/03/13 00:41:00;;;;;;;15.50;2.65;;;;;;;-143.98;100.00;68091.63;5044117;28;20076;-85
2021/03/13 00:43:26;;;;;;;7.03;2.72;;;;;;;-143.98;100.00;68091.63;5060272;28;20060;-85
2021/03/13 00:45:55;;;;;;;8.82;2.97;;;;;;;-143.98;100.00;68091.63;5043728;28;20067;-85
2021/03/13 00:48:21;;;;;;;8.88;2.90;;;;;;;-143.98;100.00;68091.63;5079784;28;20081;-84
2021/03/13 00:50:50;;;;;;;8.90;2.38;;;;;;;-143.98;100.00;68091.63;5079572;28;20066;-84
2021/03/13 00:53:19;;;;;;;7.90;2.50;;;;;;;-143.98;100.00;68091.63;5062560;28;20355;-84
2021/03/13 00:55:46;;;;;;;6.05;2.45;;;;;;;-143.98;100.00;68091.63;5063819;28;20407;-83
2021/03/13 00:58:12;;;;;;;9.00;3.08;;;;;;;-143.98;100.00;68091.63;5112392;28;20645;-83
2021/03/13 01:00:40;;;;;;;8.82;3.35;;;;;;;-143.98;100.00;68091.63;5062713;28;20146;-83
2021/03/13 01:03:07;;;;;;;10.98;3.50;;;;;;;-143.98;100.00;68091.63;5078599;28;20066;-83
2021/03/13 01:05:41;;;;;;;5.38;2.15;;;;;;;-143.98;100.00;68091.63;5096368;28;20394;-84
2021/03/13 01:08:14;;;;;;;8.10;2.97;;;;;;;-143.98;100.00;68091.63;5065210;28;20056;-83
2021/03/13 01:10:48;;;;;;;12.55;3.08;;;;;;;-143.98;100.00;68091.63;5066182;28;20052;-84
2021/03/13 01:13:22;;;;;;;7.80;3.08;;;;;;;-143.98;100.00;68091.63;5088776;28;20063;-84
2021/03/13 01:15:49;;;;;;;7.22;3.38;;;;;;;-143.98;100.00;68091.63;5097820;28;20062;-84
2021/03/13 01:18:20;;;;;;;13.50;5.03;;;;;;;-143.98;100.00;68091.63;5065267;28;20094;-84
2021/03/13 01:20:51;;;;;;;18.90;6.05;;;;;;;-143.98;100.00;68091.63;5097871;28;20044;-84
2021/03/13 01:23:17;;;;;;;26.00;6.00;;;;;;;-143.98;100.00;68091.63;5060429;28;20075;-85
2021/03/13 01:25:44;;;;;;;16.05;5.50;;;;;;;-143.98;100.00;68091.63;5076389;28;20053;-85
2021/03/13 01:28:10;;;;;;;14.45;5.78;;;;;;;-143.98;100.00;68091.63;5093477;28;20045;-85
2021/03/13 01:30:47;;;;;;;17.10;5.25;;;;;;;-143.98;100.00;68091.63;5075793;28;20370;-85
2021/03/13 01:33:14;;;;;;;19.45;6.35;;;;;;;-143.98;100.00;68091.63;5060034;28;20052;-85
2021/03/13 01:35:42;;;;;;;16.70;6.05;;;;;;;-143.98;100.00;68091.63;5077773;28;20060;-85
2021/03/13 01:38:09;;;;;;;17.98;6.10;;;;;;;-143.98;100.00;68091.63;5077814;28;20084;-85
2021/03/13 01:40:41;;;;;;;23.10;6.32;;;;;;;-143.98;100.00;68091.63;5090412;28;20116;-83
2021/03/13 01:43:10;;;;;;;16.38;5.97;;;;;;;-143.98;100.00;68091.63;5092563;28;20064;-84
2021/03/13 01:45:45;;;;;;;17.95;6.50;;;;;;;-143.98;100.00;68091.63;5077029;28;20107;-84
2021/03/13 01:48:12;;;;;;;18.90;6.05;;;;;;;-143.98;100.00;68091.63;5077421;28;20137;-84
2021/03/13 01:50:50;;;;;;;14.90;5.70;;;;;;;-143.98;100.00;68091.63;5080339;28;20048;-85
2021/03/13 01:53:16;;;;;;;14.48;6.20;;;;;;;-143.98;100.00;68091.63;5097782;28;20063;-84
2021/03/13 01:55:44;;;;;;;18.00;6.70;;;;;;;-143.98;100.00;68091.63;5081794;28;20052;-83
2021/03/13 01:58:11;;;;;;;24.17;7.78;;;;;;;-143.98;100.00;68091.63;5094161;28;20052;-83
2021/03/13 02:00:48;;;;;;;20.63;7.72;;;;;;;-143.98;100.00;68091.63;5096776;28;20056;-83
2021/03/13 02:03:15;;;;;;;24.98;7.95;;;;;;;-143.98;100.00;68091.63;5084939;28;20068;-84
2021/03/13 02:05:54;;;;;;;28.65;8.88;;;;;;;-143.98;100.00;68091.63;5097694;28;20048;-84
2021/03/13 02:08:51;;;;;;;24.10;9.30;;;;;;;-143.98;100.00;68091.63;5097043;28;20151;-84
2021/03/13 02:11:54;;;;;;;28.08;9.60;;;;;;;-143.98;100.00;68091.63;5095979;28;20100;-84
2021/03/13 02:14:50;;;;;;;27.50;9.27;;;;;;;-143.98;100.00;68091.63;5082940;28;20389;-84
2021/03/13 02:17:26;;;;;;;31.88;10.15;;;;;;;-143.98;100.00;68091.63;5055645;28;20102;-84
2021/03/13 02:20:17;;;;;;;27.63;9.52;;;;;;;-143.98;100.00;68091.63;5075979;28;20082;-84
2021/03/13 02:22:50;;;;;;;34.72;9.27;;;;;;;-143.98;100.00;68091.63;5076094;28;20050;-84
2021/03/13 02:25:38;;;;;;;30.55;9.10;;;;;;;-143.98;100.00;68091.63;5096004;28;20052;-84
2021/03/13 02:28:23;;;;;;;30.95;9.35;;;;;;;-143.98;100.00;68091.63;5080221;28;20440;-84
2021/03/13 02:30:49;;;;;;;23.50;8.90;;;;;;;-143.98;100.00;68091.63;5079755;28;20051;-83
2021/03/13 02:33:28;;;;;;;28.60;8.13;;;;;;;-143.98;100.00;68091.63;5080457;28;20246;-83
2021/03/13 02:35:57;;;;;;;25.10;8.55;;;;;;;-143.98;100.00;68091.63;5082472;28;20358;-84
2021/03/13 02:38:30;;;;;;;26.45;7.93;;;;;;;-143.98;100.00;68091.63;5066230;28;20044;-83
2021/03/13 02:41:01;;;;;;;29.42;9.35;;;;;;;-143.98;100.00;68091.63;5101582;28;20109;-83
2021/03/13 02:43:28;;;;;;;24.45;8.40;;;;;;;-143.98;100.00;68091.63;5066071;28;20052;-83
2021/03/13 02:46:00;;;;;;;21.30;8.52;;;;;;;-143.98;100.00;68091.63;5082992;28;20314;-83
2021/03/13 02:48:30;;;;;;;20.77;8.40;;;;;;;-143.98;100.00;68091.63;5115118;28;20063;-83
2021/03/13 02:50:58;;;;;;;28.30;8.80;;;;;;;-143.98;100.00;68091.63;5097523;28;20066;-83
2021/03/13 02:53:27;;;;;;;23.75;8.48;;;;;;;-143.98;100.00;68091.63;5065939;28;20063;-83
2021/03/13 02:55:54;;;;;;;35.40;9.27;;;;;;;-143.98;100.00;68091.63;5065339;28;20481;-83
2021/03/13 02:58:27;;;;;;;24.67;9.68;;;;;;;-143.98;100.00;68091.63;5082656;28;20039;-83
2021/03/13 03:00:57;;;;;;;22.05;7.68;;;;;;;-143.98;100.00;68091.63;5100417;28;20048;-82
2021/03/13 03:03:25;;;;;;;27.38;7.97;;;;;;;-143.98;100.00;68091.63;5099562;28;20058;-82
2021/03/13 03:05:54;;;;;;;19.88;7.40;;;;;;;-143.98;100.00;68091.63;5080908;28;20101;-82
2021/03/13 03:08:23;;;;;;;23.20;7.60;;;;;;;-143.98;100.00;68091.63;5080296;28;20059;-82
2021/03/13 03:10:50;;;;;;;19.10;7.40;;;;;;;-143.98;100.00;68091.63;5095640;28;20048;-82
2021/03/13 03:13:17;;;;;;;28.65;8.30;;;;;;;-143.98;100.00;68091.63;5097965;28;20044;-82
2021/03/13 03:15:50;;;;;;;22.80;7.63;;;;;;;-143.98;100.00;68091.63;5097468;28;20060;-82
2021/03/13 03:18:17;;;;;;;24.50;8.18;;;;;;;-143.98;100.00;68091.63;5078647;28;20151;-82
2021/03/13 03:20:46;;;;;;;18.98;6.00;;;;;;;-143.98;100.00;68091.63;5098837;28;20059;-83
2021/03/13 03:23:15;;;;;;;22.40;7.25;;;;;;;-143.98;100.00;68091.63;5077497;28;20351;-82
2021/03/13 03:25:45;;;;;;;15.80;6.63;;;;;;;-143.98;100.00;68091.63;5078847;28;20113;-82
2021/03/13 03:28:20;;;;;;;17.63;7.20;;;;;;;-143.98;100.00;68091.63;5059819;28;20084;-82
2021/03/13 03:30:51;;;;;;;29.30;7.53;;;;;;;-143.98;100.00;68091.63;5074770;28;20045;-83
2021/03/13 03:33:17;;;;;;;18.88;6.43;;;;;;;-143.98;100.00;68091.63;5041847;28;20053;-82
2021/03/13 03:35:46;;;;;;;21.33;7.55;;;;;;;-143.98;100.00;68091.63;5058768;28;20308;-83
2021/03/13 03:38:13;;;;;;;18.85;7.22;;;;;;;-143.98;100.00;68091.63;5041482;28;20057;-82
2021/03/13 03:40:43;;;;;;;22.80;7.85;;;;;;;-143.98;100.00;68091.63;5040874;28;20060;-82
2021/03/13 03:43:32;;;;;;;21.67;7.82;;;;;;;-143.98;100.00;68091.63;5061008;28;20136;-82
2021/03/13 03:46:00;;;;;;;24.15;7.65;;;;;;;-143.98;100.00;68091.63;5058523;28;20104;-82
2021/03/13 03:48:28;;;;;;;14.77;6.97;;;;;;;-143.98;100.00;68091.63;5058562;28;20353;-82
2021/03/13 03:50:56;;;;;;;18.20;7.10;;;;;;;-143.98;100.00;68091.63;5041365;28;20053;-82
2021/03/13 03:53:29;;;;;;;18.35;6.45;;;;;;;-143.98;100.00;68091.63;5074320;28;20049;-82
2021/03/13 03:56:03;;;;;;;28.50;6.82;;;;;;;-143.98;100.00;68091.63;5056678;28;20049;-82
2021/03/13 03:58:41;;;;;;;15.73;6.60;;;;;;;-143.98;100.00;68091.63;5072725;28;20060;-82
2021/03/13 04:01:08;;;;;;;13.32;6.22;;;;;;;-143.98;100.00;68091.63;5055957;28;20041;-82
2021/03/13 04:03:43;;;;;;;15.95;6.05;;;;;;;-143.98;100.00;68091.63;5081016;28;20075;-82
2021/03/13 04:06:13;;;;;;;19.48;6.20;;;;;;;-143.98;100.00;68091.63;5075400;28;20307;-82
2021/03/13 04:08:46;;;;;;;17.15;6.43;;;;;;;-143.98;100.00;68091.63;5057124;28;20098;-82
2021/03/13 04:11:20;;;;;;;21.25;7.00;;;;;;;-143.98;100.00;68091.63;5060032;28;20296;-82
2021/03/13 04:13:52;;;;;;;21.80;6.70;;;;;;;-143.98;100.00;68091.63;5107761;28;20064;-82
2021/03/13 04:16:30;;;;;;;18.77;6.97;;;;;;;-143.98;100.00;68091.63;5074133;28;20083;-82
2021/03/13 04:19:02;;;;;;;22.98;7.43;;;;;;;-143.98;100.00;68091.63;5075047;28;20451;-82
2021/03/13 04:21:33;;;;;;;24.40;6.00;;;;;;;-143.98;100.00;68091.63;5075967;28;20056;-82
2021/03/13 04:24:05;;;;;;;19.50;6.20;;;;;;;-143.98;100.00;68091.63;5075434;28;20071;-82
2021/03/13 04:26:32;;;;;;;14.73;4.80;;;;;;;-143.98;100.00;68091.63;5059898;28;20336;-82
2021/03/13 04:28:58;;;;;;;20.50;5.70;;;;;;;-143.98;100.00;68091.63;5076064;28;20157;-82
2021/03/13 04:31:30;;;;;;;23.20;6.20;;;;;;;-143.98;100.00;68091.63;5076122;28;20090;-82
2021/03/13 04:33:58;;;;;;;27.02;6.35;;;;;;;-143.98;100.00;68091.63;5090914;28;20057;-82
2021/03/13 04:36:26;;;;;;;15.00;4.93;;;;;;;-143.98;100.00;68091.63;5075912;28;20459;-83
2021/03/13 04:38:53;;;;;;;19.10;5.63;;;;;;;-143.98;100.00;68091.63;5067598;28;20040;-83
2021/03/13 04:41:21;;;;;;;21.63;6.53;;;;;;;-143.98;100.00;68091.63;5092669;28;20100;-84
2021/03/13 04:43:47;;;;;;;21.63;5.85;;;;;;;-143.98;100.00;68091.63;5083990;28;20248;-83
2021/03/13 04:46:14;;;;;;;21.10;6.00;;;;;;;-143.98;100.00;68091.63;5076362;28;20274;-84
2021/03/13 04:48:42;;;;;;;18.60;6.13;;;;;;;-143.98;100.00;68091.63;5072002;28;20124;-84
2021/03/13 04:51:10;;;;;;;15.35;7.05;;;;;;;-143.98;100.00;68091.63;5059754;28;20383;-84
2021/03/13 04:53:36;;;;;;;19.00;7.55;;;;;;;-143.98;100.00;68091.63;5075839;28;20429;-84
2021/03/13 04:56:03;;;;;;;22.75;8.85;;;;;;;-143.98;100.00;68091.63;5057874;28;20055;-85
2021/03/13 04:58:29;;;;;;;15.70;9.00;;;;;;;-143.98;100.00;68091.63;5060852;28;20048;-84
2021/03/13 05:00:56;;;;;;;24.20;10.00;;;;;;;-143.98;100.00;68091.63;5077394;28;20152;-84
2021/03/13 05:03:38;;;;;;;24.20;10.98;;;;;;;-143.98;100.00;68091.63;5062723;28;20111;-84
2021/03/13 05:06:14;;;;;;;31.63;11.75;;;;;;;-143.98;100.00;68091.63;5060034;28;20063;-85
2021/03/13 05:08:44;;;;;;;26.23;12.43;;;;;;;-143.98;100.00;68091.63;5050816;28;20119;-85
2021/03/13 05:11:11;;;;;;;23.88;13.20;;;;;;;-143.98;100.00;68091.63;5075764;28;20140;-85
2021/03/13 05:13:39;;;;;;;29.05;14.10;;;;;;;-143.98;100.00;68091.63;5092557;28;20048;-85
2021/03/13 05:16:07;;;;;;;29.20;13.18;;;;;;;-143.98;100.00;68091.63;5076325;28;20098;-85
2021/03/13 05:18:36;;;;;;;26.88;13.20;;;;;;;-143.98;100.00;68091.63;5091727;28;20413;-85
2021/03/13 05:21:06;;;;;;;29.58;13.65;;;;;;;-143.98;100.00;68091.63;5054018;28;20098;-85
2021/03/13 05:38:33;;;;;;;19.35;10.07;;;;;;;-143.98;100.00;68091.63;4960063;28;20058;-82
2021/03/13 05:40:59;;;;;;;27.10;10.93;;;;;;;-143.98;100.00;68091.63;4963099;28;20062;-82
2021/03/13 05:44:13;;;;;;;28.33;11.27;;;;;;;-143.98;100.00;68091.63;4988710;28;20049;-83
2021/03/13 05:47:39;;;;;;;20.30;10.15;;;;;;;-143.98;100.00;68091.63;4997621;28;20096;-83
2021/03/13 05:51:04;;;;;;;24.50;10.35;;;;;;;-143.98;100.00;68091.63;5014665;28;20063;-83
2021/03/13 05:53:34;;;;;;;21.85;10.60;;;;;;;-143.98;100.00;68091.63;5047777;28;20298;-83
2021/03/13 05:56:01;;;;;;;14.82;9.05;;;;;;;-143.98;100.00;68091.63;5051824;28;20076;-83
2021/03/13 05:58:30;;;;;;;21.75;9.23;;;;;;;-143.98;100.00;68091.63;5064762;28;20088;-83
2021/03/13 06:00:56;;;;;;;14.57;8.57;;;;;;;-143.98;100.00;68091.63;5026478;28;20176;-83
2021/03/13 06:03:22;;;;;;;15.35;8.93;;;;;;;-143.98;100.00;68091.63;5031649;28;20437;-83
2021/03/13 06:05:49;;;;;;;16.55;8.00;;;;;;;-143.98;100.00;68091.63;5020099;28;20433;-83
2021/03/13 06:08:18;;;;;;;12.48;7.78;;;;;;;-143.98;100.00;68091.63;5064733;28;20135;-83
2021/03/13 06:10:45;;;;;;;13.32;7.32;;;;;;;-143.98;100.00;68091.63;5091800;28;20461;-83
2021/03/13 06:13:14;;;;;;;18.85;8.32;;;;;;;-143.98;100.00;68091.63;5077768;28;20076;-83
2021/03/13 06:15:44;;;;;;;14.10;8.77;;;;;;;-143.98;100.00;68091.63;5074723;28;20079;-83
2021/03/13 06:18:10;;;;;;;14.07;8.50;;;;;;;-143.98;100.00;68091.63;5075700;28;20044;-83
2021/03/13 06:20:43;;;;;;;13.18;9.13;;;;;;;-143.98;100.00;68091.63;5058749;28;20055;-83
2021/03/13 06:23:15;;;;;;;12.98;8.32;;;;;;;-143.98;100.00;68091.63;5063413;28;20094;-82
2021/03/13 06:25:43;;;;;;;17.83;8.95;;;;;;;-143.98;100.00;68091.63;5072710;28;20047;-82
2021/03/13 06:28:14;;;;;;;12.77;7.75;;;;;;;-143.98;100.00;68091.63;5080120;28;20458;-82
2021/03/13 06:30:43;;;;;;;11.52;8.20;;;;;;;-143.98;100.00;68091.63;5062867;28;20068;-82
2021/03/13 06:33:24;;;;;;;10.30;6.90;;;;;;;-143.98;100.00;68091.63;5099810;28;20112;-82
2021/03/13 06:35:55;;;;;;;15.35;8.20;;;;;;;-143.98;100.00;68091.63;5094129;28;20409;-82
2021/03/13 06:38:32;;;;;;;12.82;7.65;;;;;;;-143.98;100.00;68091.63;5079825;28;20224;-82
2021/03/13 06:41:10;;;;;;;15.13;7.47;;;;;;;-143.98;100.00;68091.63;5062653;28;20051;-82
2021/03/13 06:43:37;;;;;;;10.05;6.20;;;;;;;-143.98;100.00;68091.63;5076939;28;20051;-82
2021/03/13 06:46:14;;;;;;;12.52;7.07;;;;;;;-143.98;100.00;68091.63;5059930;28;20142;-82
2021/03/13 06:48:42;;;;;;;8.80;6.65;;;;;;;-143.98;100.00;68091.63;5096408;28;20404;-82
2021/03/13 06:51:30;;;;;;;10.20;6.03;;;;;;;-143.98;100.00;68091.63;5094853;28;20075;-82
2021/03/13 06:54:04;;;;;;;6.63;5.43;;;;;;;-143.98;100.00;68091.63;5059415;28;20044;-82
2021/03/13 06:56:54;;;;;;;11.20;5.93;;;;;;;-143.98;100.00;68091.63;5085490;28;20063;-83
2021/03/13 06:59:25;;;;;;;7.75;5.70;;;;;;;-143.98;100.00;68091.63;5081881;28;20425;-82
2021/03/13 07:02:00;;;;;;;6.82;5.63;;;;;;;-143.98;100.00;68091.63;5076539;28;20615;-82
2021/03/13 07:04:43;;;;;;;8.45;4.95;;;;;;;-143.98;100.00;68091.63;5060105;28;20129;-83
2021/03/13 07:07:29;;;;;;;12.25;7.00;;;;;;;-143.98;100.00;68091.63;5078002;28;20113;-83
2021/03/13 07:10:13;;;;;;;12.23;6.20;;;;;;;-143.98;100.00;68091.63;5109887;28;20070;-83
2021/03/13 07:12:43;;;;;;;10.32;6.00;;;;;;;-143.98;100.00;68091.63;5076147;28;20048;-83
2021/03/13 07:15:18;;;;;;;6.10;5.30;;;;;;;-143.98;100.00;68091.63;5071901;28;20151;-84
2021/03/13 07:18:04;;;;;;;10.27;6.25;;;;;;;-143.98;100.00;68091.63;5092815;28;20188;-84
2021/03/13 07:20:36;;;;;;;9.20;5.32;;;;;;;-143.98;100.00;68091.63;5077495;28;20116;-83
2021/03/13 07:23:06;;;;;;;5.82;4.53;;;;;;;-143.98;100.00;68091.63;5076464;28;20604;-83
2021/03/13 07:25:40;;;;;;;7.72;5.28;;;;;;;-143.98;100.00;68091.63;5078030;28;20136;-83
2021/03/13 07:28:12;;;;;;;11.38;4.53;;;;;;;-143.98;100.00;68091.63;5062035;28;20117;-83
2021/03/13 07:30:41;;;;;;;5.57;4.15;;;;;;;-143.98;100.00;68091.63;5060933;28;20144;-83
2021/03/13 07:33:11;;;;;;;5.18;3.05;;;;;;;-143.98;100.00;68091.63;5059376;28;20052;-84
2021/03/13 07:35:50;;;;;;;6.78;3.83;;;;;;;-143.98;100.00;68091.63;5074728;28;20087;-83
2021/03/13 07:38:18;;;;;;;8.38;3.92;;;;;;;-143.98;100.00;68091.63;5063205;28;20133;-84
2021/03/13 07:40:49;;;;;;;4.90;3.47;;;;;;;-143.98;100.00;68091.63;5075648;28;20055;-83
2021/03/13 07:43:20;;;;;;;5.80;3.15;;;;;;;-143.98;100.00;68091.63;5079405;28;20044;-84
2021/03/13 07:45:47;;;;;;;7.07;3.28;;;;;;;-143.98;100.00;68091.63;5058384;28;20052;-84
2021/03/13 07:48:17;;;;;;;3.97;3.00;;;;;;;-143.98;100.00;68091.63;5076918;28;20420;-84
2021/03/13 07:50:48;;;;;;;5.63;3.03;;;;;;;-143.98;100.00;68091.63;5056323;28;20306;-83
2021/03/13 07:53:14;;;;;;;5.93;3.08;;;;;;;-143.98;100.00;68091.63;5050987;28;20070;-83
2021/03/13 07:55:50;;;;;;;4.03;2.65;;;;;;;-143.98;100.00;68091.63;5042650;28;20410;-83
2021/03/13 07:58:16;;;;;;;4.22;1.95;;;;;;;-143.98;100.00;68091.63;5075299;28;20044;-83
2021/03/13 08:00:44;;;;;;;4.57;2.63;;;;;;;-143.98;100.00;68091.63;5073451;28;20050;-84
2021/03/13 08:03:29;;;;;;;4.85;2.58;;;;;;;-143.98;100.00;68091.63;5076391;28;20055;-83
2021/03/13 08:06:18;;;;;;;4.35;2.40;;;;;;;-143.98;100.00;68091.63;5076425;28;20102;-85
2021/03/13 08:08:52;;;;;;;5.32;2.70;;;;;;;-143.98;100.00;68091.63;5089711;28;20040;-84
2021/03/13 08:11:37;;;;;;;5.07;2.47;;;;;;;-143.98;100.00;68091.63;5077089;28;20040;-84
2021/03/13 08:14:05;;;;;;;3.35;2.20;;;;;;;-143.98;100.00;68091.63;5057251;28;20054;-85
2021/03/13 08:16:36;;;;;;;3.72;2.33;;;;;;;-143.98;100.00;68091.63;5076747;28;20047;-85
2021/03/13 08:19:33;;;;;;;2.60;2.00;;;;;;;-143.98;100.00;68091.63;5060607;28;20352;-85
2021/03/13 08:22:22;;;;;;;2.40;1.90;;;;;;;-143.98;100.00;68091.63;5059856;28;20067;-84
2021/03/13 08:24:55;;;;;;;2.67;2.13;;;;;;;-143.98;100.00;68091.63;5041465;28;20061;-83
2021/03/13 08:27:42;;;;;;;4.22;1.90;;;;;;;-143.98;100.00;68091.63;5052931;28;20329;-83
2021/03/13 08:30:19;;;;;;;2.28;2.05;;;;;;;-143.98;100.00;68091.63;5031758;28;20056;-82
2021/03/13 08:33:04;;;;;;;3.75;2.40;;;;;;;-143.98;100.00;68091.63;5053076;28;20148;-84
2021/03/13 08:35:45;;;;;;;2.75;2.08;;;;;;;-143.98;100.00;68091.63;5051041;28;20150;-83
2021/03/13 08:38:20;;;;;;;3.20;1.70;;;;;;;-143.98;100.00;68091.63;5049653;28;20052;-84
2021/03/13 08:41:01;;;;;;;2.70;1.30;;;;;;;-143.98;100.00;68091.63;5028454;28;20049;-84
2021/03/13 08:43:40;;;;;;;6.18;1.60;;;;;;;-143.98;100.00;68091.63;5051576;28;20456;-85
2021/03/13 08:46:39;;;;;;;4.63;1.23;;;;;;;-143.98;100.00;68091.63;5051893;28;20041;-85
2021/03/13 08:49:07;;;;;;;3.17;0.90;;;;;;;-143.98;100.00;68091.63;5050618;28;20102;-85
2021/03/13 08:51:34;;;;;;;4.85;0.93;;;;;;;-143.98;100.00;68091.63;5049660;28;20048;-85
2021/03/13 08:54:00;;;;;;;4.78;0.70;;;;;;;-143.98;100.00;68091.63;5049051;28;20140;-83
2021/03/13 08:56:46;;;;;;;6.03;0.80;;;;;;;-143.98;100.00;68091.63;5048706;28;20102;-82
2021/03/13 08:59:17;;;;;;;1.85;0.70;;;;;;;-143.98;100.00;68091.63;5035322;28;20048;-81
2021/03/13 09:02:08;;;;;;;3.50;1.10;;;;;;;-143.98;100.00;68091.63;5050345;28;20133;-82
2021/03/13 09:04:36;;;;;;;5.47;0.98;;;;;;;-143.98;100.00;68091.63;5046746;28;20099;-81
2021/03/13 09:07:20;;;;;;;3.83;1.20;;;;;;;-143.98;100.00;68091.63;5065222;28;20123;-81
2021/03/13 09:10:15;;;;;;;6.00;1.20;;;;;;;-143.98;100.00;68091.63;5032816;28;20045;-82
2021/03/13 09:12:43;;;;;;;3.15;0.80;;;;;;;-143.98;100.00;68091.63;5050126;28;20075;-81
2021/03/13 09:15:11;;;;;;;4.03;1.25;;;;;;;-143.98;100.00;68091.63;5038973;28;20048;-82
2021/03/13 09:17:37;;;;;;;4.82;1.00;;;;;;;-143.98;100.00;68091.63;5046696;28;20059;-81
2021/03/13 09:20:07;;;;;;;7.65;1.02;;;;;;;-143.98;100.00;68091.63;5051470;28;20048;-82
2021/03/13 09:22:44;;;;;;;5.13;1.02;;;;;;;-143.98;100.00;68091.63;5049081;28;20118;-82
2021/03/13 09:25:13;;;;;;;5.82;1.55;;;;;;;-143.98;100.00;68091.63;5068199;28;20439;-82
2021/03/13 09:27:40;;;;;;;5.57;2.05;;;;;;;-143.98;100.00;68091.63;5067937;28;20093;-81
2021/03/13 09:30:22;;;;;;;4.85;1.20;;;;;;;-143.98;100.00;68091.63;5052370;28;20359;-81
2021/03/13 09:32:52;;;;;;;4.22;1.20;;;;;;;-143.98;100.00;68091.63;5069152;28;20256;-80
2021/03/13 09:35:21;;;;;;;5.20;1.15;;;;;;;-143.98;100.00;68091.63;5050657;28;20424;-82
2021/03/13 09:38:00;;;;;;;6.45;1.25;;;;;;;-143.98;100.00;68091.63;5051572;28;20387;-82
2021/03/13 09:40:29;;;;;;;5.18;1.38;;;;;;;-143.98;100.00;68091.63;5068192;28;20071;-83
2021/03/13 09:42:55;;;;;;;8.32;1.20;;;;;;;-143.98;100.00;68091.63;5052572;28;20052;-80
2021/03/13 09:45:24;;;;;;;6.85;1.33;;;;;;;-143.98;100.00;68091.63;5055242;28;20082;-80
2021/03/13 09:47:56;;;;;;;5.60;1.27;;;;;;;-143.98;100.00;68091.63;5070551;28;20097;-80
2021/03/13 09:50:31;;;;;;;6.90;1.63;;;;;;;-143.98;100.00;68091.63;5070025;28;20049;-80
2021/03/13 09:53:00;;;;;;;3.72;1.00;;;;;;;-143.98;100.00;68091.63;5054536;28;20144;-81
2021/03/13 09:55:30;;;;;;;7.32;1.60;;;;;;;-143.98;100.00;68091.63;5072765;28;20249;-81
2021/03/13 09:58:02;;;;;;;5.82;1.77;;;;;;;-143.98;100.00;68091.63;5056303;28;20052;-81
2021/03/13 10:00:33;;;;;;;6.45;1.25;;;;;;;-143.98;100.00;68091.63;5072545;28;20327;-81
2021/03/13 10:03:02;;;;;;;8.88;1.52;;;;;;;-143.98;100.00;68091.63;5055320;28;20147;-82
2021/03/13 10:05:35;;;;;;;11.98;1.55;;;;;;;-143.98;100.00;68091.63;5055642;28;20048;-81
2021/03/13 10:08:06;;;;;;;11.30;1.65;;;;;;;-143.98;100.00;68091.63;5071892;28;20048;-80
2021/03/13 10:10:36;;;;;;;8.40;1.50;;;;;;;-143.98;100.00;68091.63;5070603;28;20064;-80
2021/03/13 10:13:08;;;;;;;10.98;1.95;;;;;;;-143.98;100.00;68091.63;5056396;28;20175;-83
2021/03/13 10:15:39;;;;;;;8.65;1.70;;;;;;;-143.98;100.00;68091.63;5047583;28;20060;-80
2021/03/13 10:18:12;;;;;;;8.38;1.83;;;;;;;-143.98;100.00;68091.63;5072386;28;20052;-81
2021/03/13 10:20:48;;;;;;;9.50;1.85;;;;;;;-143.98;100.00;68091.63;5057098;28;20055;-80
2021/03/13 10:23:19;;;;;;;12.95;1.83;;;;;;;-143.98;100.00;68091.63;5072648;28;20115;-80
2021/03/13 10:26:09;;;;;;;10.02;2.08;;;;;;;-143.98;100.00;68091.63;5075296;28;20051;-81
2021/03/13 10:28:37;;;;;;;6.90;1.50;;;;;;;-143.98;100.00;68091.63;5047377;28;20257;-82
2021/03/13 10:31:08;;;;;;;15.25;2.13;;;;;;;-143.98;100.00;68091.63;5067455;28;20135;-82
2021/03/13 10:33:41;;;;;;;10.95;2.00;;;;;;;-143.98;100.00;68091.63;5074762;28;20040;-82
2021/03/13 10:36:08;;;;;;;11.57;1.90;;;;;;;-143.98;100.00;68091.63;5087494;28;20079;-82
2021/03/13 10:39:02;;;;;;;4.85;1.45;;;;;;;-143.98;100.00;68091.63;5088877;28;20242;-82
2021/03/13 10:41:28;;;;;;;9.40;1.80;;;;;;;-143.98;100.00;68091.63;5093432;28;20059;-82
2021/03/13 10:43:54;;;;;;;11.82;2.15;;;;;;;-143.98;100.00;68091.63;5059206;28;20044;-81
2021/03/13 10:46:24;;;;;;;13.27;1.90;;;;;;;-143.98;100.00;68091.63;5057486;28;20040;-81
2021/03/13 10:48:54;;;;;;;7.13;1.73;;;;;;;-143.98;100.00;68091.63;5073090;28;20408;-81
2021/03/13 10:51:35;;;;;;;11.55;1.63;;;;;;;-143.98;100.00;68091.63;5092197;28;20079;-81
2021/03/13 10:54:03;;;;;;;10.63;2.10;;;;;;;-143.98;100.00;68091.63;5063930;28;20044;-80
2021/03/13 10:56:40;;;;;;;6.82;2.00;;;;;;;-143.98;100.00;68091.63;5091017;28;20427;-81
2021/03/13 10:59:08;;;;;;;14.90;1.92;;;;;;;-143.98;100.00;68091.63;5060115;28;20047;-81
2021/03/13 11:01:34;;;;;;;10.23;1.63;;;;;;;-143.98;100.00;68091.63;5060133;28;20447;-81
2021/03/13 11:04:01;;;;;;;12.77;1.90;;;;;;;-143.98;100.00;68091.63;5089960;28;20052;-81
2021/03/13 11:06:33;;;;;;;10.88;2.00;;;;;;;-143.98;100.00;68091.63;5054877;28;20359;-82
2021/03/13 11:09:06;;;;;;;10.57;1.90;;;;;;;-143.98;100.00;68091.63;5070628;28;20043;-83
2021/03/13 11:11:32;;;;;;;6.75;1.50;;;;;;;-143.98;100.00;68091.63;5067294;28;20601;-83
2021/03/13 11:13:58;;;;;;;6.30;1.45;;;;;;;-143.98;100.00;68091.63;5051258;28;20039;-83
2021/03/13 11:16:27;;;;;;;11.65;2.00;;;;;;;-143.98;100.00;68091.63;5076333;28;20056;-82
2021/03/13 11:19:00;;;;;;;15.15;2.50;;;;;;;-143.98;100.00;68091.63;5076342;28;20326;-84
2021/03/13 11:21:27;;;;;;;8.98;1.80;;;;;;;-143.98;100.00;68091.63;5057022;28;20384;-83
2021/03/13 11:23:54;;;;;;;8.10;1.63;;;;;;;-143.98;100.00;68091.63;5069500;28;20296;-83
2021/03/13 11:26:22;;;;;;;7.13;1.73;;;;;;;-143.98;100.00;68091.63;5069277;28;20052;-80
2021/03/13 11:28:57;;;;;;;13.73;1.80;;;;;;;-143.98;100.00;68091.63;5069382;28;20056;-82
2021/03/13 11:31:23;;;;;;;6.80;1.65;;;;;;;-143.98;100.00;68091.63;5068932;28;20049;-82
2021/03/13 11:33:51;;;;;;;8.95;1.92;;;;;;;-143.98;100.00;68091.63;5085160;28;20055;-80
2021/03/13 11:36:17;;;;;;;12.45;2.65;;;;;;;-143.98;100.00;68091.63;5068043;28;20052;-79
2021/03/13 11:38:44;;;;;;;10.27;2.38;;;;;;;-143.98;100.00;68091.63;5081770;28;20048;-79
2021/03/13 11:41:27;;;;;;;9.75;2.25;;;;;;;-143.98;100.00;68091.63;5080523;28;20053;-79
2021/03/13 11:43:56;;;;;;;8.73;2.00;;;;;;;-143.98;100.00;68091.63;5078310;28;20060;-81